createdAt,value
2022-11-05T00:02:24.368Z,31.42
2022-11-05T00:05:09.194Z,27.10
2022-11-05T00:08:06.346Z,29.80
2022-11-05T00:10:36.742Z,30.15
2022-11-05T00:13:27.562Z,29.08
2022-11-05T00:16:12.760Z,33.15
2022-11-05T00:18:42.207Z,44.75
2022-11-05T00:21:28.957Z,45.20
2022-11-05T00:24:21.723Z,35.55
2022-11-05T00:26:50.469Z,34.53
2022-11-05T00:29:16.864Z,36.55
2022-11-05T00:31:43.243Z,34.17
2022-11-05T00:34:11.076Z,36.75
2022-11-05T00:36:37.524Z,33.42
2022-11-05T00:39:05.897Z,32.22
2022-11-05T00:41:32.300Z,29.70
2022-11-05T00:44:17.766Z,28.33
2022-11-05T00:46:44.149Z,31.52
2022-11-05T00:49:30.147Z,27.60
2022-11-05T00:52:15.442Z,24.98
2022-11-05T00:54:41.843Z,28.52
2022-11-05T00:57:08.217Z,33.75
2022-11-05T00:59:34.613Z,29.98
2022-11-05T01:02:09.786Z,33.90
2022-11-05T01:07:02.594Z,27.95
2022-11-05T01:09:29.042Z,26.30
2022-11-05T01:11:55.764Z,26.02
2022-11-05T01:14:22.156Z,31.10
2022-11-05T01:16:48.718Z,28.35
2022-11-05T01:19:15.357Z,27.33
2022-11-05T01:21:41.819Z,27.63
2022-11-05T01:24:17.801Z,26.02
2022-11-05T01:26:44.229Z,22.25
2022-11-05T01:29:11.070Z,28.13
2022-11-05T01:31:37.565Z,26.25
2022-11-05T01:34:04.041Z,22.75
2022-11-05T01:36:30.438Z,25.40
2022-11-05T01:38:56.962Z,29.27
2022-11-05T01:41:23.551Z,30.83
2022-11-05T01:43:56.562Z,25.48
2022-11-05T01:46:49.204Z,29.15
2022-11-05T01:49:29.021Z,26.15
2022-11-05T01:52:07.469Z,23.98
2022-11-05T01:54:35.168Z,23.88
2022-11-05T01:57:17.798Z,24.58
2022-11-05T01:59:49.640Z,25.98
2022-11-05T02:02:29.470Z,31.85
2022-11-05T02:05:00.635Z,27.45
2022-11-05T02:07:33.606Z,26.70
2022-11-05T02:10:04.209Z,30.13
2022-11-05T02:12:42.106Z,30.17
2022-11-05T02:15:13.434Z,24.65
2022-11-05T02:17:55.532Z,27.88
2022-11-05T02:20:27.906Z,27.75
2022-11-05T02:23:41.035Z,31.20
2022-11-05T02:26:44.274Z,25.58
2022-11-05T02:29:55.248Z,27.42
2022-11-05T02:32:50.769Z,26.25
2022-11-05T02:35:48.874Z,25.10
2022-11-05T02:38:38.973Z,26.63
2022-11-05T02:41:22.179Z,28.92
2022-11-05T02:44:17.608Z,27.20
2022-11-05T02:47:12.885Z,24.48
2022-11-05T02:49:48.136Z,27.23
2022-11-05T02:52:21.990Z,26.75
2022-11-05T02:55:03.260Z,26.65
2022-11-05T02:57:30.760Z,28.92
2022-11-05T03:00:05.779Z,23.35
2022-11-05T03:02:33.059Z,22.63
2022-11-05T03:05:00.921Z,25.17
2022-11-05T03:07:36.577Z,25.05
2022-11-05T03:10:11.534Z,26.23
2022-11-05T03:12:51.848Z,29.05
2022-11-05T03:15:30.457Z,30.30
2022-11-05T03:18:38.743Z,27.58
2022-11-05T03:21:09.236Z,30.20
2022-11-05T03:23:58.826Z,27.70
2022-11-05T03:26:32.006Z,27.88
2022-11-05T03:29:07.167Z,29.67
2022-11-05T03:31:36.525Z,26.88
2022-11-05T03:34:06.692Z,28.27
2022-11-05T03:36:41.818Z,28.05
2022-11-05T03:39:13.757Z,26.05
2022-11-05T03:41:44.371Z,27.40
2022-11-05T03:44:13.808Z,38.70
2022-11-05T03:46:49.290Z,25.38
2022-11-05T03:49:21.398Z,26.50
2022-11-05T03:52:13.246Z,25.73
2022-11-05T03:54:40.168Z,24.83
2022-11-05T03:57:10.963Z,26.60
2022-11-05T03:59:43.940Z,27.58
2022-11-05T04:02:18.695Z,28.58
2022-11-05T04:04:45.813Z,29.35
2022-11-05T04:07:31.029Z,29.48
2022-11-05T04:10:16.176Z,26.92
2022-11-05T04:13:01.213Z,30.33
2022-11-05T04:15:29.603Z,28.67
2022-11-05T04:17:58.797Z,28.58
2022-11-05T04:21:00.347Z,28.10
2022-11-05T04:23:45.526Z,39.03
2022-11-05T04:26:11.912Z,30.30
2022-11-05T04:28:56.872Z,33.17
2022-11-05T04:31:26.267Z,28.60
2022-11-05T04:33:52.647Z,30.85
2022-11-05T04:36:19.641Z,33.47
2022-11-05T04:38:46.044Z,29.50
2022-11-05T04:41:13.903Z,29.73
2022-11-05T04:43:40.398Z,28.35
2022-11-05T04:46:07.325Z,33.95
2022-11-05T04:48:33.914Z,32.30
2022-11-05T04:51:06.180Z,30.83
2022-11-05T04:53:32.743Z,31.10
2022-11-05T04:56:35.785Z,30.25
2022-11-05T04:59:02.322Z,30.42
2022-11-05T05:01:33.238Z,30.27
2022-11-05T05:03:59.758Z,30.88
2022-11-05T05:06:26.623Z,27.90
2022-11-05T05:08:53.147Z,29.30
2022-11-05T05:11:21.237Z,32.58
2022-11-05T05:13:50.783Z,31.25
2022-11-05T05:16:24.132Z,30.63
2022-11-05T05:18:57.379Z,30.70
2022-11-05T05:21:39.126Z,30.15
2022-11-05T05:24:11.237Z,31.42
2022-11-05T05:26:39.217Z,29.52
2022-11-05T05:29:06.736Z,37.72
2022-11-05T05:31:33.429Z,29.88
2022-11-05T05:34:00.190Z,31.38
2022-11-05T05:36:27.191Z,33.85
2022-11-05T05:38:53.671Z,35.28
2022-11-05T05:41:29.211Z,30.00
2022-11-05T05:43:55.680Z,33.33
2022-11-05T05:46:22.142Z,36.42
2022-11-05T05:48:51.258Z,32.15
2022-11-05T05:51:18.947Z,32.30
2022-11-05T05:53:45.470Z,32.42
2022-11-05T05:56:14.848Z,33.08
2022-11-05T05:58:49.980Z,37.40
2022-11-05T06:01:19.685Z,34.30
2022-11-05T06:03:51.562Z,30.17
2022-11-05T06:06:19.960Z,31.58
2022-11-05T06:08:46.785Z,36.05
2022-11-05T06:11:13.706Z,32.35
2022-11-05T06:13:40.127Z,29.15
2022-11-05T06:16:13.003Z,32.63
2022-11-05T06:18:39.453Z,34.92
2022-11-05T06:21:15.721Z,26.55
2022-11-05T06:23:44.266Z,31.23
2022-11-05T06:26:42.815Z,36.92
2022-11-05T06:29:10.622Z,34.53
2022-11-05T06:31:38.496Z,34.38
2022-11-05T06:34:04.895Z,34.53
2022-11-05T06:36:31.348Z,34.13
2022-11-05T06:38:57.723Z,36.95
2022-11-05T06:41:24.101Z,38.20
2022-11-05T06:43:50.594Z,31.52
2022-11-05T06:46:17.062Z,34.53
2022-11-05T06:48:43.485Z,38.65
2022-11-05T06:51:09.943Z,38.45
2022-11-05T06:53:36.393Z,35.05
2022-11-05T06:56:05.624Z,35.25
2022-11-05T06:58:32.298Z,37.47
2022-11-05T07:01:04.523Z,37.72
2022-11-05T07:03:31.353Z,34.70
2022-11-05T07:06:00.698Z,40.08
2022-11-05T07:08:31.390Z,41.72
2022-11-05T07:10:58.445Z,36.10
2022-11-05T07:13:29.418Z,39.05
2022-11-05T07:15:56.586Z,39.42
2022-11-05T07:18:23.738Z,48.58
2022-11-05T07:20:50.145Z,40.17
2022-11-05T07:23:16.922Z,47.78
2022-11-05T07:25:43.717Z,43.17
2022-11-05T07:28:10.880Z,42.03
2022-11-05T07:30:37.935Z,44.55
2022-11-05T07:33:04.406Z,42.17
2022-11-05T07:35:30.985Z,40.88
2022-11-05T07:37:57.727Z,41.90
2022-11-05T07:40:26.202Z,46.70
2022-11-05T07:42:54.643Z,45.95
2022-11-05T07:45:30.958Z,35.38
2022-11-05T07:48:00.334Z,46.85
2022-11-05T07:50:38.387Z,34.05
2022-11-05T07:53:14.979Z,32.05
2022-11-05T07:55:52.462Z,26.73
2022-11-05T07:58:18.922Z,51.13
2022-11-05T08:00:58.866Z,53.17
2022-11-05T08:03:25.537Z,22.83
2022-11-05T08:05:51.992Z,50.65
2022-11-05T08:08:19.780Z,23.67
2022-11-05T08:10:47.144Z,50.53
2022-11-05T08:13:14.721Z,49.25
2022-11-05T08:15:42.949Z,49.28
2022-11-05T08:18:14.978Z,49.55
2022-11-05T08:20:43.216Z,44.13
2022-11-05T08:23:10.653Z,43.83
2022-11-05T08:25:37.482Z,47.95
2022-11-05T08:28:07.512Z,47.60
2022-11-05T08:30:35.216Z,48.03
2022-11-05T08:33:05.505Z,21.85
2022-11-05T08:35:34.478Z,41.80
2022-11-05T08:38:03.978Z,42.97
2022-11-05T08:40:33.176Z,49.70
2022-11-05T08:43:02.704Z,45.60
2022-11-05T08:45:33.572Z,25.60
2022-11-05T08:48:03.860Z,37.13
2022-11-05T08:50:31.069Z,9.50
2022-11-05T08:52:57.904Z,25.08
2022-11-05T08:55:24.872Z,23.50
2022-11-05T08:57:59.210Z,35.38
2022-11-05T09:00:27.389Z,21.88
2022-11-05T09:02:54.211Z,21.63
2022-11-05T09:05:21.210Z,18.17
2022-11-05T09:07:47.876Z,11.68
2022-11-05T09:10:14.856Z,22.48
2022-11-05T09:12:41.511Z,22.58
2022-11-05T09:15:09.273Z,27.38
2022-11-05T09:17:35.770Z,30.58
2022-11-05T09:20:03.628Z,21.80
2022-11-05T09:22:30.256Z,30.83
2022-11-05T09:24:56.729Z,10.98
2022-11-05T09:27:23.184Z,26.80
2022-11-05T09:29:49.605Z,19.05
2022-11-05T09:32:19.318Z,12.13
2022-11-05T09:34:45.820Z,17.27
2022-11-05T09:37:12.263Z,26.70
2022-11-05T09:39:38.653Z,18.80
2022-11-05T09:42:07.934Z,25.63
2022-11-05T09:44:42.945Z,10.30
2022-11-05T09:47:53.628Z,24.10
2022-11-05T09:50:25.996Z,26.77
2022-11-05T09:52:52.429Z,9.45
2022-11-05T09:55:32.385Z,24.38
2022-11-05T09:58:10.780Z,24.38
2022-11-05T10:00:37.403Z,20.15
2022-11-05T10:03:11.778Z,14.85
2022-11-05T10:05:40.324Z,8.23
2022-11-05T10:08:16.907Z,14.32
2022-11-05T10:10:47.488Z,13.27
2022-11-05T10:13:39.761Z,19.95
2022-11-05T10:16:41.672Z,10.20
2022-11-05T10:19:39.355Z,22.48
2022-11-05T10:22:16.199Z,7.72
2022-11-05T10:24:50.998Z,12.27
2022-11-05T10:27:25.172Z,10.60
2022-11-05T10:29:52.022Z,18.80
2022-11-05T10:32:28.901Z,10.90
2022-11-05T10:34:59.445Z,18.75
2022-11-05T10:37:27.720Z,18.90
2022-11-05T10:39:54.519Z,7.25
2022-11-05T10:43:06.091Z,9.38
2022-11-05T10:45:44.638Z,13.55
2022-11-05T10:48:45.258Z,9.18
2022-11-05T10:51:12.613Z,7.93
2022-11-05T10:53:42.465Z,6.90
2022-11-05T10:56:33.144Z,12.20
2022-11-05T10:59:01.863Z,10.75
2022-11-05T11:01:29.258Z,4.43
2022-11-05T11:04:17.253Z,4.25
2022-11-05T11:06:49.627Z,7.90
2022-11-05T11:09:24.181Z,7.72
2022-11-05T11:11:59.343Z,8.98
2022-11-05T11:14:26.425Z,7.22
2022-11-05T11:16:57.634Z,10.60
2022-11-05T11:19:31.493Z,5.50
2022-11-05T11:22:03.875Z,15.35
2022-11-05T11:24:36.928Z,13.35
2022-11-05T11:27:26.906Z,9.20
2022-11-05T11:30:05.291Z,14.20
2022-11-05T11:32:36.602Z,9.45
2022-11-05T11:35:04.556Z,11.85
2022-11-05T11:37:42.122Z,5.03
2022-11-05T11:40:25.111Z,16.80
2022-11-05T11:42:55.832Z,9.93
2022-11-05T11:45:36.519Z,7.95
2022-11-05T11:48:06.294Z,5.90
2022-11-05T11:50:39.812Z,8.13
2022-11-05T11:53:21.536Z,10.38
2022-11-05T11:56:18.495Z,13.60
2022-11-05T11:58:47.794Z,14.27
2022-11-05T12:01:27.219Z,3.58
2022-11-05T12:04:11.537Z,10.90
2022-11-05T12:07:12.155Z,9.88
2022-11-05T12:09:53.856Z,7.38
2022-11-05T12:12:46.774Z,3.92
2022-11-05T12:15:38.112Z,17.90
2022-11-05T12:18:18.899Z,7.00
2022-11-05T12:20:48.090Z,6.70
2022-11-05T12:23:39.198Z,12.85
2022-11-05T12:26:23.993Z,7.25
2022-11-05T12:29:17.374Z,16.27
2022-11-05T12:31:47.910Z,5.72
2022-11-05T12:34:48.078Z,7.88
2022-11-05T12:38:05.880Z,18.73
2022-11-05T12:41:00.031Z,11.45
2022-11-05T12:43:40.463Z,7.28
2022-11-05T12:46:16.762Z,6.28
2022-11-05T12:49:01.458Z,7.40
2022-11-05T12:51:45.746Z,13.10
2022-11-05T12:54:54.729Z,16.65
2022-11-05T12:57:23.044Z,8.35
2022-11-05T13:00:06.282Z,7.50
2022-11-05T13:02:48.223Z,10.07
2022-11-05T13:05:29.680Z,7.35
2022-11-05T13:08:02.178Z,13.45
2022-11-05T13:10:52.526Z,3.83
2022-11-05T13:13:37.130Z,13.05
2022-11-05T13:16:16.934Z,23.13
2022-11-05T13:18:51.987Z,8.60
2022-11-05T13:21:24.126Z,8.63
2022-11-05T13:24:18.718Z,8.95
2022-11-05T13:26:54.242Z,6.65
2022-11-05T13:29:28.598Z,3.85
2022-11-05T13:32:08.193Z,2.65
2022-11-05T13:34:37.636Z,9.43
2022-11-05T13:37:25.304Z,6.18
2022-11-05T13:40:01.519Z,12.88
2022-11-05T13:42:40.038Z,2.50
2022-11-05T13:45:24.706Z,14.57
2022-11-05T13:48:23.674Z,7.97
2022-11-05T13:51:27.311Z,11.07
2022-11-05T13:54:12.712Z,6.15
2022-11-05T13:57:03.581Z,6.65
2022-11-05T13:59:35.956Z,5.70
2022-11-05T14:02:11.945Z,13.25
2022-11-05T14:04:47.809Z,3.15
2022-11-05T14:07:34.350Z,9.65
2022-11-05T14:10:21.861Z,7.63
2022-11-05T14:12:53.010Z,6.07
2022-11-05T14:15:29.642Z,7.60
2022-11-05T14:18:16.860Z,2.33
2022-11-05T14:20:47.593Z,9.23
2022-11-05T14:23:23.421Z,5.40
2022-11-05T14:26:12.476Z,7.55
2022-11-05T14:28:43.159Z,3.15
2022-11-05T14:31:18.696Z,4.45
2022-11-05T14:34:14.429Z,10.60
2022-11-05T14:36:43.262Z,6.93
2022-11-05T14:39:26.474Z,3.00
2022-11-05T14:42:02.981Z,13.57
2022-11-05T14:44:32.981Z,11.90
2022-11-05T14:47:05.767Z,7.22
2022-11-05T14:49:53.238Z,10.82
2022-11-05T14:52:20.477Z,4.45
2022-11-05T14:54:58.212Z,16.85
2022-11-05T14:57:43.058Z,4.60
2022-11-05T15:00:29.517Z,13.97
2022-11-05T15:03:05.307Z,14.68
2022-11-05T15:05:33.203Z,11.45
2022-11-05T15:08:20.197Z,10.48
2022-11-05T15:10:48.127Z,26.33
2022-11-05T15:13:30.392Z,24.60
2022-11-05T15:15:58.155Z,22.65
2022-11-05T15:18:40.513Z,19.05
2022-11-05T15:21:13.211Z,18.83
2022-11-05T15:23:43.408Z,18.30
2022-11-05T15:26:23.622Z,14.63
2022-11-05T15:28:52.439Z,20.60
2022-11-05T15:31:33.376Z,12.13
2022-11-05T15:34:33.288Z,8.48
2022-11-05T15:37:20.163Z,14.10
2022-11-05T15:39:48.344Z,16.58
2022-11-05T15:42:22.332Z,17.42
2022-11-05T15:44:51.134Z,18.23
2022-11-05T15:47:19.703Z,14.50
2022-11-05T15:49:52.885Z,16.88
2022-11-05T15:52:22.108Z,19.27
2022-11-05T15:55:06.720Z,14.73
2022-11-05T15:57:40.057Z,17.77
2022-11-05T16:00:17.889Z,15.27
2022-11-05T16:03:07.848Z,15.65
2022-11-05T16:05:41.716Z,20.45
2022-11-05T16:08:16.925Z,14.05
2022-11-05T16:10:47.992Z,16.20
2022-11-05T16:13:37.755Z,16.60
2022-11-05T16:16:33.920Z,10.77
2022-11-05T16:21:27.529Z,13.82
2022-11-05T16:23:59.945Z,19.17
2022-11-05T16:29:38.029Z,13.70
2022-11-05T16:32:16.689Z,12.98
2022-11-05T16:35:06.886Z,12.65
2022-11-05T16:37:41.591Z,8.50
2022-11-05T16:40:16.904Z,13.02
2022-11-05T16:45:13.564Z,14.65
2022-11-05T16:47:40.016Z,14.52
2022-11-05T16:50:29.989Z,12.25
2022-11-05T16:52:56.467Z,8.27
2022-11-05T16:55:22.926Z,15.55
2022-11-05T16:57:52.093Z,15.45
2022-11-05T17:00:20.576Z,13.13
2022-11-05T17:02:48.314Z,15.10
2022-11-05T17:05:22.596Z,14.35
2022-11-05T17:07:49.167Z,6.97
2022-11-05T17:10:16.162Z,5.25
2022-11-05T17:12:42.983Z,11.52
2022-11-05T17:15:31.069Z,11.63
2022-11-05T17:17:58.864Z,13.80
2022-11-05T17:20:40.306Z,10.02
2022-11-05T17:23:09.654Z,9.73
2022-11-05T17:25:43.574Z,10.82
2022-11-05T17:28:10.661Z,10.23
2022-11-05T17:30:41.721Z,12.18
2022-11-05T17:33:10.848Z,14.93
2022-11-05T17:35:41.884Z,14.15
2022-11-05T17:38:09.325Z,5.90
2022-11-05T17:40:36.763Z,11.02
2022-11-05T17:43:03.884Z,10.38
2022-11-05T17:45:30.929Z,6.05
2022-11-05T17:47:57.368Z,5.57
2022-11-05T17:50:24.669Z,9.82
2022-11-05T17:52:51.239Z,9.27
2022-11-05T17:55:17.771Z,7.38
2022-11-05T17:57:46.554Z,7.18
2022-11-05T18:00:16.081Z,6.40
2022-11-05T18:02:42.776Z,15.88
2022-11-05T18:05:10.082Z,3.72
2022-11-05T18:07:36.824Z,9.15
2022-11-05T18:10:03.697Z,11.00
2022-11-05T18:12:30.102Z,16.67
2022-11-05T18:14:56.557Z,20.80
2022-11-05T18:17:22.997Z,13.98
2022-11-05T18:19:49.533Z,12.20
2022-11-05T18:22:18.282Z,8.35
2022-11-05T18:24:45.259Z,13.73
2022-11-05T18:27:12.333Z,12.73
2022-11-05T18:29:38.833Z,17.77
2022-11-05T18:32:05.417Z,21.95
2022-11-05T18:34:31.992Z,18.77
2022-11-05T18:36:58.544Z,13.25
2022-11-05T18:39:25.034Z,13.82
2022-11-05T18:41:51.477Z,18.52
2022-11-05T18:44:22.611Z,13.93
2022-11-05T18:46:58.126Z,8.18
2022-11-05T18:49:25.589Z,6.35
2022-11-05T18:51:52.015Z,6.57
2022-11-05T18:54:18.656Z,5.68
2022-11-05T18:56:45.676Z,4.80
2022-11-05T18:59:36.754Z,13.18
2022-11-05T19:02:00.306Z,8.00
2022-11-05T19:04:27.007Z,11.32
2022-11-05T19:06:53.553Z,11.20
2022-11-05T19:09:20.797Z,14.63
2022-11-05T19:11:47.483Z,10.00
2022-11-05T19:14:13.963Z,8.27
2022-11-05T19:16:40.382Z,17.10
2022-11-05T19:19:06.924Z,14.20
2022-11-05T19:21:36.315Z,7.40
2022-11-05T19:24:03.891Z,8.18
2022-11-05T19:26:30.802Z,5.95
2022-11-05T19:28:59.497Z,3.75
2022-11-05T19:31:26.895Z,6.43
2022-11-05T19:33:54.437Z,8.98
2022-11-05T19:36:23.136Z,7.85
2022-11-05T19:38:57.540Z,11.23
2022-11-05T19:41:27.601Z,18.47
2022-11-05T19:43:55.125Z,10.20
2022-11-05T19:46:23.614Z,15.68
2022-11-05T19:48:50.805Z,18.80
2022-11-05T19:51:20.859Z,11.40
2022-11-05T19:53:47.498Z,16.40
2022-11-05T19:56:16.978Z,5.57
2022-11-05T19:58:44.255Z,11.05
2022-11-05T20:01:13.647Z,14.25
2022-11-05T20:03:41.251Z,11.85
2022-11-05T20:06:11.133Z,8.95
2022-11-05T20:08:59.344Z,6.57
2022-11-05T20:11:28.230Z,1.95
2022-11-05T20:13:54.759Z,7.82
2022-11-05T20:16:32.349Z,6.03
2022-11-05T20:18:59.077Z,10.05
2022-11-05T20:21:25.624Z,14.65
2022-11-05T20:23:52.178Z,5.97
2022-11-05T20:26:18.622Z,14.10
2022-11-05T20:28:45.710Z,3.08
2022-11-05T20:31:15.503Z,12.98
2022-11-05T20:33:43.084Z,2.60
2022-11-05T20:36:16.955Z,6.88
2022-11-05T20:38:47.061Z,9.65
2022-11-05T20:41:13.709Z,5.22
2022-11-05T20:43:41.429Z,8.68
2022-11-05T20:46:09.809Z,12.35
2022-11-05T20:48:36.773Z,15.27
2022-11-05T20:51:08.371Z,15.10
2022-11-05T20:53:35.969Z,7.25
2022-11-05T20:56:07.616Z,9.15
2022-11-05T20:58:35.750Z,12.07
2022-11-05T21:01:02.957Z,19.48
2022-11-05T21:03:29.359Z,7.43
2022-11-05T21:05:59.791Z,14.32
2022-11-05T21:08:27.796Z,8.85
2022-11-05T21:10:55.216Z,6.85
2022-11-05T21:13:22.617Z,11.52
2022-11-05T21:15:50.882Z,10.60
2022-11-05T21:18:18.661Z,11.88
2022-11-05T21:20:46.247Z,14.52
2022-11-05T21:23:13.288Z,19.80
2022-11-05T21:25:41.208Z,16.10
2022-11-05T21:28:08.522Z,13.85
2022-11-05T21:30:37.729Z,12.98
2022-11-05T21:33:05.348Z,16.90
2022-11-05T21:35:32.169Z,12.52
2022-11-05T21:37:58.600Z,13.35
2022-11-05T21:40:25.156Z,9.75
2022-11-05T21:42:51.801Z,4.18
2022-11-05T21:45:18.254Z,14.23
2022-11-05T21:47:44.637Z,8.00
2022-11-05T21:50:11.203Z,9.32
2022-11-05T21:52:56.005Z,18.13
2022-11-05T21:55:22.425Z,12.00
2022-11-05T21:58:07.685Z,16.92
2022-11-05T22:00:34.135Z,15.52
2022-11-05T22:03:00.658Z,13.98
2022-11-05T22:05:27.650Z,17.38
2022-11-05T22:07:54.071Z,16.25
2022-11-05T22:10:20.685Z,9.68
2022-11-05T22:12:47.101Z,8.40
2022-11-05T22:15:14.378Z,13.30
2022-11-05T22:17:46.234Z,7.18
2022-11-05T22:20:13.851Z,17.83
2022-11-05T22:22:40.305Z,12.02
2022-11-05T22:25:07.079Z,3.13
2022-11-05T22:27:33.479Z,12.40
2022-11-05T22:29:59.899Z,13.25
2022-11-05T22:32:26.284Z,11.65
2022-11-05T22:34:52.754Z,22.15
2022-11-05T22:37:19.221Z,4.93
2022-11-05T22:39:45.652Z,10.60
2022-11-05T22:42:12.479Z,15.38
2022-11-05T22:44:38.984Z,14.43
2022-11-05T22:47:06.045Z,14.35
2022-11-05T22:49:32.975Z,13.73
2022-11-05T22:52:02.361Z,14.73
2022-11-05T22:54:28.930Z,3.33
2022-11-05T22:56:55.348Z,19.67
2022-11-05T22:59:21.816Z,12.00
2022-11-05T23:01:49.312Z,12.82
2022-11-05T23:04:16.389Z,17.50
2022-11-05T23:07:02.003Z,17.85
2022-11-05T23:09:52.119Z,14.65
2022-11-05T23:12:28.533Z,19.60
2022-11-05T23:14:57.115Z,14.23
2022-11-05T23:17:42.717Z,16.70
2022-11-05T23:20:35.329Z,11.82
2022-11-05T23:23:20.631Z,17.65
2022-11-05T23:25:47.168Z,14.88
2022-11-05T23:28:13.949Z,15.65
2022-11-05T23:31:03.491Z,10.48
2022-11-05T23:33:33.871Z,12.30
2022-11-05T23:36:19.226Z,18.42
2022-11-05T23:38:45.641Z,11.75
2022-11-05T23:41:30.401Z,11.40
2022-11-05T23:44:15.333Z,12.10
2022-11-05T23:47:00.188Z,15.52
2022-11-05T23:49:27.842Z,3.20
2022-11-05T23:51:54.240Z,12.70
2022-11-05T23:54:21.888Z,8.32
2022-11-05T23:56:48.308Z,12.52
2022-11-05T23:59:14.743Z,12.38
